sensor_id;sensor_type;location;lat;lon;timestamp;pressure;altitude;pressure_sealevel;temperature;humidity
20145;BME280;10233;50.814;6.590;2023-03-01T00:00:36;101530.94;;;0.29;100.00
20145;BME280;10233;50.814;6.590;2023-03-01T00:01:37;101532.72;;;0.29;100.00
20145;BME280;10233;50.814;6.590;2023-03-01T00:02:37;101530.84;;;0.31;100.00
20145;BME280;10233;50.814;6.590;2023-03-01T00:03:38;101520.81;;;0.38;100.00
20145;BME280;10233;50.814;6.590;2023-03-01T00:04:38;101522.78;;;0.34;100.00
20145;BME280;10233;50.814;6.590;2023-03-01T00:05:46;101521.00;;;0.34;100.00
20145;BME280;10233;50.814;6.590;2023-03-01T00:06:47;101526.34;;;0.33;100.00
20145;BME280;10233;50.814;6.590;2023-03-01T00:07:47;101530.75;;;0.32;100.00
20145;BME280;10233;50.814;6.590;2023-03-01T00:08:48;101520.59;;;0.28;100.00
20145;BME280;10233;50.814;6.590;2023-03-01T00:09:49;101525.19;;;0.24;100.00
20145;BME280;10233;50.814;6.590;2023-03-01T00:10:49;101523.94;;;0.17;100.00
20145;BME280;10233;50.814;6.590;2023-03-01T00:11:52;101526.66;;;0.16;100.00
20145;BME280;10233;50.814;6.590;2023-03-01T00:12:53;101531.25;;;0.13;100.00
20145;BME280;10233;50.814;6.590;2023-03-01T00:13:56;101528.75;;;0.11;100.00
20145;BME280;10233;50.814;6.590;2023-03-01T00:14:57;101529.69;;;0.10;100.00
20145;BME280;10233;50.814;6.590;2023-03-01T00:15:58;101531.56;;;0.08;100.00
20145;BME280;10233;50.814;6.590;2023-03-01T00:16:58;101535.13;;;0.07;100.00
20145;BME280;10233;50.814;6.590;2023-03-01T00:17:59;101535.97;;;0.08;100.00
20145;BME280;10233;50.814;6.590;2023-03-01T00:18:59;101537.72;;;0.07;100.00
20145;BME280;10233;50.814;6.590;2023-03-01T00:20:00;101532.94;;;0.13;100.00
20145;BME280;10233;50.814;6.590;2023-03-01T00:21:02;101536.78;;;0.08;100.00
20145;BME280;10233;50.814;6.590;2023-03-01T00:22:02;101527.09;;;0.10;100.00
20145;BME280;10233;50.814;6.590;2023-03-01T00:23:03;101528.41;;;0.03;100.00
20145;BME280;10233;50.814;6.590;2023-03-01T00:24:04;101534.50;;;0.03;100.00
20145;BME280;10233;50.814;6.590;2023-03-01T00:25:05;101537.91;;;0.04;100.00
20145;BME280;10233;50.814;6.590;2023-03-01T00:26:07;101533.53;;;0.04;100.00
20145;BME280;10233;50.814;6.590;2023-03-01T00:27:08;101534.59;;;0.02;100.00
20145;BME280;10233;50.814;6.590;2023-03-01T00:28:12;101531.03;;;0.03;100.00
20145;BME280;10233;50.814;6.590;2023-03-01T00:29:12;101538.78;;;0.04;100.00
20145;BME280;10233;50.814;6.590;2023-03-01T00:30:13;101538.78;;;0.04;100.00
20145;BME280;10233;50.814;6.590;2023-03-01T00:31:16;101539.19;;;-0.02;100.00
20145;BME280;10233;50.814;6.590;2023-03-01T00:32:18;101534.78;;;-0.01;100.00
20145;BME280;10233;50.814;6.590;2023-03-01T00:33:18;101538.25;;;-0.01;100.00
20145;BME280;10233;50.814;6.590;2023-03-01T00:34:19;101534.78;;;-0.01;100.00
20145;BME280;10233;50.814;6.590;2023-03-01T00:35:19;101533.13;;;-0.02;100.00
20145;BME280;10233;50.814;6.590;2023-03-01T00:36:20;101537.41;;;-0.01;100.00
20145;BME280;10233;50.814;6.590;2023-03-01T00:37:21;101537.50;;;-0.03;100.00
20145;BME280;10233;50.814;6.590;2023-03-01T00:38:21;101536.47;;;0.00;100.00
20145;BME280;10233;50.814;6.590;2023-03-01T00:39:22;101539.19;;;-0.02;100.00
20145;BME280;10233;50.814;6.590;2023-03-01T00:40:30;101536.66;;;-0.03;100.00
20145;BME280;10233;50.814;6.590;2023-03-01T00:41:32;101536.88;;;-0.06;100.00
20145;BME280;10233;50.814;6.590;2023-03-01T00:42:34;101540.41;;;-0.07;100.00
20145;BME280;10233;50.814;6.590;2023-03-01T00:43:35;101529.88;;;-0.06;100.00
20145;BME280;10233;50.814;6.590;2023-03-01T00:44:39;101531.97;;;-0.11;100.00
20145;BME280;10233;50.814;6.590;2023-03-01T00:45:39;101533.09;;;-0.15;100.00
20145;BME280;10233;50.814;6.590;2023-03-01T00:46:40;101531.44;;;-0.16;100.00
20145;BME280;10233;50.814;6.590;2023-03-01T00:47:41;101534.13;;;-0.17;100.00
20145;BME280;10233;50.814;6.590;2023-03-01T00:48:42;101531.00;;;-0.22;100.00
20145;BME280;10233;50.814;6.590;2023-03-01T00:49:42;101534.53;;;-0.23;100.00
20145;BME280;10233;50.814;6.590;2023-03-01T00:50:43;101524.28;;;-0.26;100.00
20145;BME280;10233;50.814;6.590;2023-03-01T00:51:43;101525.13;;;-0.26;100.00
20145;BME280;10233;50.814;6.590;2023-03-01T00:52:44;101534.84;;;-0.28;100.00
20145;BME280;10233;50.814;6.590;2023-03-01T00:53:45;101532.44;;;-0.31;100.00
20145;BME280;10233;50.814;6.590;2023-03-01T00:54:46;101526.28;;;-0.30;100.00
20145;BME280;10233;50.814;6.590;2023-03-01T00:55:47;101520.88;;;-0.27;100.00
20145;BME280;10233;50.814;6.590;2023-03-01T00:56:47;101515.63;;;-0.27;100.00
20145;BME280;10233;50.814;6.590;2023-03-01T00:57:48;101525.88;;;-0.24;100.00
20145;BME280;10233;50.814;6.590;2023-03-01T00:58:49;101528.88;;;-0.30;100.00
20145;BME280;10233;50.814;6.590;2023-03-01T00:59:49;101522.72;;;-0.29;100.00
20145;BME280;10233;50.814;6.590;2023-03-01T01:00:50;101522.63;;;-0.27;100.00
20145;BME280;10233;50.814;6.590;2023-03-01T01:01:50;101522.63;;;-0.27;100.00
20145;BME280;10233;50.814;6.590;2023-03-01T01:02:53;101520.19;;;-0.30;100.00
20145;BME280;10233;50.814;6.590;2023-03-01T01:03:56;101518.84;;;-0.36;100.00
20145;BME280;10233;50.814;6.590;2023-03-01T01:04:57;101524.16;;;-0.37;100.00
20145;BME280;10233;50.814;6.590;2023-03-01T01:05:58;101522.41;;;-0.37;100.00
20145;BME280;10233;50.814;6.590;2023-03-01T01:06:58;101526.97;;;-0.40;100.00
20145;BME280;10233;50.814;6.590;2023-03-01T01:07:59;101523.63;;;-0.42;100.00
20145;BME280;10233;50.814;6.590;2023-03-01T01:08:59;101520.19;;;-0.43;100.00
20145;BME280;10233;50.814;6.590;2023-03-01T01:10:00;101519.97;;;-0.40;100.00
20145;BME280;10233;50.814;6.590;2023-03-01T01:11:00;101519.13;;;-0.40;100.00
20145;BME280;10233;50.814;6.590;2023-03-01T01:12:02;101519.34;;;-0.43;100.00
20145;BME280;10233;50.814;6.590;2023-03-01T01:13:03;101519.22;;;-0.42;100.00
20145;BME280;10233;50.814;6.590;2023-03-01T01:14:04;101513.38;;;-0.45;100.00
20145;BME280;10233;50.814;6.590;2023-03-01T01:15:04;101523.00;;;-0.46;100.00
20145;BME280;10233;50.814;6.590;2023-03-01T01:16:06;101510.88;;;-0.47;100.00
20145;BME280;10233;50.814;6.590;2023-03-01T01:17:07;101504.06;;;-0.49;100.00
20145;BME280;10233;50.814;6.590;2023-03-01T01:18:08;101509.28;;;-0.49;100.00
20145;BME280;10233;50.814;6.590;2023-03-01T01:19:10;101511.19;;;-0.51;100.00
20145;BME280;10233;50.814;6.590;2023-03-01T01:20:11;101512.75;;;-0.49;100.00
20145;BME280;10233;50.814;6.590;2023-03-01T01:21:14;101501.28;;;-0.46;100.00
20145;BME280;10233;50.814;6.590;2023-03-01T01:22:15;101508.38;;;-0.48;100.00
20145;BME280;10233;50.814;6.590;2023-03-01T01:23:15;101507.53;;;-0.49;100.00
20145;BME280;10233;50.814;6.590;2023-03-01T01:24:17;101503.16;;;-0.48;100.00
20145;BME280;10233;50.814;6.590;2023-03-01T01:25:18;101503.78;;;-0.45;100.00
20145;BME280;10233;50.814;6.590;2023-03-01T01:26:24;101503.69;;;-0.43;100.00
20145;BME280;10233;50.814;6.590;2023-03-01T01:27:25;101498.47;;;-0.43;100.00
20145;BME280;10233;50.814;6.590;2023-03-01T01:28:26;101494.06;;;-0.43;100.00
20145;BME280;10233;50.814;6.590;2023-03-01T01:29:29;101501.91;;;-0.43;100.00
20145;BME280;10233;50.814;6.590;2023-03-01T01:30:29;101500.03;;;-0.41;100.00
20145;BME280;10233;50.814;6.590;2023-03-01T01:31:30;101496.59;;;-0.41;100.00
20145;BME280;10233;50.814;6.590;2023-03-01T01:32:31;101496.28;;;-0.37;100.00
20145;BME280;10233;50.814;6.590;2023-03-01T01:33:33;101496.91;;;-0.46;100.00
20145;BME280;10233;50.814;6.590;2023-03-01T01:34:34;101499.72;;;-0.36;100.00
20145;BME280;10233;50.814;6.590;2023-03-01T01:35:34;101497.22;;;-0.38;100.00
20145;BME280;10233;50.814;6.590;2023-03-01T01:36:35;101496.16;;;-0.35;100.00
20145;BME280;10233;50.814;6.590;2023-03-01T01:37:35;101492.13;;;-0.39;100.00
20145;BME280;10233;50.814;6.590;2023-03-01T01:38:37;101487.09;;;-0.42;100.00
20145;BME280;10233;50.814;6.590;2023-03-01T01:39:38;101479.44;;;-0.45;100.00
20145;BME280;10233;50.814;6.590;2023-03-01T01:40:46;101477.88;;;-0.48;100.00
20145;BME280;10233;50.814;6.590;2023-03-01T01:41:47;101479.34;;;-0.44;100.00
20145;BME280;10233;50.814;6.590;2023-03-01T01:42:47;101474.97;;;-0.43;100.00
20145;BME280;10233;50.814;6.590;2023-03-01T01:44:09;101479.44;;;-0.45;100.00
20145;BME280;10233;50.814;6.590;2023-03-01T01:46:31;101478.09;;;-0.51;100.00
20145;BME280;10233;50.814;6.590;2023-03-01T01:47:32;101469.50;;;-0.53;100.00
20145;BME280;10233;50.814;6.590;2023-03-01T01:48:40;101470.53;;;-0.55;100.00
20145;BME280;10233;50.814;6.590;2023-03-01T01:49:59;101472.97;;;-0.52;100.00
20145;BME280;10233;50.814;6.590;2023-03-01T01:51:01;101472.03;;;-0.51;100.00
20145;BME280;10233;50.814;6.590;2023-03-01T01:53:18;101468.47;;;-0.50;100.00
20145;BME280;10233;50.814;6.590;2023-03-01T01:54:34;101468.56;;;-0.52;100.00
20145;BME280;10233;50.814;6.590;2023-03-01T01:55:42;101473.78;;;-0.52;100.00
20145;BME280;10233;50.814;6.590;2023-03-01T01:56:50;101469.59;;;-0.54;100.00
20145;BME280;10233;50.814;6.590;2023-03-01T01:57:55;101466.25;;;-0.56;100.00
20145;BME280;10233;50.814;6.590;2023-03-01T01:58:57;101463.75;;;-0.58;100.00
20145;BME280;10233;50.814;6.590;2023-03-01T02:00:00;101465.72;;;-0.61;100.00
20145;BME280;10233;50.814;6.590;2023-03-01T02:01:13;101462.41;;;-0.63;100.00
20145;BME280;10233;50.814;6.590;2023-03-01T02:02:14;101463.31;;;-0.64;100.00
20145;BME280;10233;50.814;6.590;2023-03-01T02:03:18;101459.88;;;-0.65;100.00
20145;BME280;10233;50.814;6.590;2023-03-01T02:04:21;101462.59;;;-0.66;100.00
20145;BME280;10233;50.814;6.590;2023-03-01T02:05:43;101460.69;;;-0.64;100.00
20145;BME280;10233;50.814;6.590;2023-03-01T02:06:56;101464.25;;;-0.65;100.00
20145;BME280;10233;50.814;6.590;2023-03-01T02:07:59;101459.03;;;-0.65;100.00
20145;BME280;10233;50.814;6.590;2023-03-01T02:09:03;101450.47;;;-0.67;100.00
20145;BME280;10233;50.814;6.590;2023-03-01T02:10:05;101457.38;;;-0.66;100.00
20145;BME280;10233;50.814;6.590;2023-03-01T02:11:07;101457.47;;;-0.68;100.00
20145;BME280;10233;50.814;6.590;2023-03-01T02:12:08;101454.13;;;-0.70;100.00
20145;BME280;10233;50.814;6.590;2023-03-01T02:13:09;101464.47;;;-0.68;100.00
20145;BME280;10233;50.814;6.590;2023-03-01T02:14:11;101457.47;;;-0.68;100.00
20145;BME280;10233;50.814;6.590;2023-03-01T02:15:11;101455.88;;;-0.70;100.00
20145;BME280;10233;50.814;6.590;2023-03-01T02:16:14;101452.56;;;-0.72;100.00
20145;BME280;10233;50.814;6.590;2023-03-01T02:17:17;101458.59;;;-0.72;100.00
20145;BME280;10233;50.814;6.590;2023-03-01T02:18:20;101450.88;;;-0.73;100.00
20145;BME280;10233;50.814;6.590;2023-03-01T02:22:37;101445.91;;;-0.64;100.00
20145;BME280;10233;50.814;6.590;2023-03-01T02:23:38;101442.84;;;-0.70;100.00
20145;BME280;10233;50.814;6.590;2023-03-01T02:24:49;101440.63;;;-0.76;100.00
20145;BME280;10233;50.814;6.590;2023-03-01T02:27:06;101443.78;;;-0.71;100.00
20145;BME280;10233;50.814;6.590;2023-03-01T02:29:14;101442.72;;;-0.81;100.00
20145;BME280;10233;50.814;6.590;2023-03-01T02:30:15;101434.44;;;-0.88;100.00
20145;BME280;10233;50.814;6.590;2023-03-01T02:31:18;101443.41;;;-0.92;100.00
20145;BME280;10233;50.814;6.590;2023-03-01T02:32:40;101448.63;;;-0.92;100.00
20145;BME280;10233;50.814;6.590;2023-03-01T02:33:42;101453.28;;;-0.97;100.00
20145;BME280;10233;50.814;6.590;2023-03-01T02:34:44;101442.84;;;-0.97;100.00
20145;BME280;10233;50.814;6.590;2023-03-01T02:35:45;101444.66;;;-0.97;100.00
20145;BME280;10233;50.814;6.590;2023-03-01T02:36:48;101442.13;;;-0.99;100.00
20145;BME280;10233;50.814;6.590;2023-03-01T02:37:49;101442.84;;;-0.97;100.00
20145;BME280;10233;50.814;6.590;2023-03-01T02:38:53;101444.44;;;-0.94;100.00
20145;BME280;10233;50.814;6.590;2023-03-01T02:39:59;101448.34;;;-0.87;100.00
20145;BME280;10233;50.814;6.590;2023-03-01T02:41:05;101440.38;;;-0.86;100.00
20145;BME280;10233;50.814;6.590;2023-03-01T02:42:11;101439.56;;;-0.86;100.00
20145;BME280;10233;50.814;6.590;2023-03-01T02:43:16;101438.53;;;-0.84;100.00
20145;BME280;10233;50.814;6.590;2023-03-01T02:44:19;101438.72;;;-0.87;100.00
20145;BME280;10233;50.814;6.590;2023-03-01T02:45:20;101443.13;;;-0.87;100.00
20145;BME280;10233;50.814;6.590;2023-03-01T02:46:23;101432.47;;;-0.84;100.00
20145;BME280;10233;50.814;6.590;2023-03-01T02:47:23;101434.13;;;-0.83;100.00
20145;BME280;10233;50.814;6.590;2023-03-01T02:48:24;101434.78;;;-0.80;100.00
20145;BME280;10233;50.814;6.590;2023-03-01T02:49:28;101438.53;;;-0.84;100.00
20145;BME280;10233;50.814;6.590;2023-03-01T02:51:41;101435.06;;;-0.84;100.00
20145;BME280;10233;50.814;6.590;2023-03-01T02:52:56;101434.34;;;-0.86;100.00
20145;BME280;10233;50.814;6.590;2023-03-01T02:54:41;101435.28;;;-0.87;100.00
20145;BME280;10233;50.814;6.590;2023-03-01T02:55:34;101442.47;;;-0.91;100.00
20145;BME280;10233;50.814;6.590;2023-03-01T02:56:35;101445.06;;;-0.91;100.00
20145;BME280;10233;50.814;6.590;2023-03-01T02:57:40;101435.78;;;-0.95;100.00
20145;BME280;10233;50.814;6.590;2023-03-01T02:58:43;101441.81;;;-0.94;100.00
20145;BME280;10233;50.814;6.590;2023-03-01T02:59:52;101442.03;;;-0.97;100.00
20145;BME280;10233;50.814;6.590;2023-03-01T03:00:55;101439.63;;;-1.00;100.00
20145;BME280;10233;50.814;6.590;2023-03-01T03:01:57;101437.00;;;-1.00;100.00
20145;BME280;10233;50.814;6.590;2023-03-01T03:02:58;101443.25;;;-1.03;100.00
20145;BME280;10233;50.814;6.590;2023-03-01T03:04:00;101444.19;;;-1.04;100.00
20145;BME280;10233;50.814;6.590;2023-03-01T03:05:14;101440.75;;;-1.04;100.00
20145;BME280;10233;50.814;6.590;2023-03-01T03:06:16;101440.34;;;-0.98;100.00
20145;BME280;10233;50.814;6.590;2023-03-01T03:07:16;101437.00;;;-1.00;100.00
20145;BME280;10233;50.814;6.590;2023-03-01T03:08:17;101439.53;;;-0.99;100.00
20145;BME280;10233;50.814;6.590;2023-03-01T03:09:24;101442.31;;;-1.02;100.00
20145;BME280;10233;50.814;6.590;2023-03-01T03:10:28;101440.75;;;-1.04;100.00
20145;BME280;10233;50.814;6.590;2023-03-01T03:11:29;101434.59;;;-1.03;100.00
20145;BME280;10233;50.814;6.590;2023-03-01T03:12:30;101438.44;;;-1.09;100.00
20145;BME280;10233;50.814;6.590;2023-03-01T03:13:31;101434.03;;;-1.08;100.00
20145;BME280;10233;50.814;6.590;2023-03-01T03:14:32;101442.81;;;-1.09;100.00
20145;BME280;10233;50.814;6.590;2023-03-01T03:15:36;101430.31;;;-1.04;100.00
20145;BME280;10233;50.814;6.590;2023-03-01T03:16:43;101425.41;;;-1.09;100.00
20145;BME280;10233;50.814;6.590;2023-03-01T03:17:44;101434.25;;;-1.11;100.00
20145;BME280;10233;50.814;6.590;2023-03-01T03:18:44;101432.38;;;-1.09;100.00
20145;BME280;10233;50.814;6.590;2023-03-01T03:19:45;101432.47;;;-1.11;100.00
20145;BME280;10233;50.814;6.590;2023-03-01T03:20:46;101435.22;;;-1.12;100.00
20145;BME280;10233;50.814;6.590;2023-03-01T03:21:46;101428.84;;;-1.08;100.00
20145;BME280;10233;50.814;6.590;2023-03-01T03:22:48;101427.16;;;-1.09;100.00
20145;BME280;10233;50.814;6.590;2023-03-01T03:23:49;101423.63;;;-1.08;100.00
20145;BME280;10233;50.814;6.590;2023-03-01T03:24:50;101429.50;;;-1.05;100.00
20145;BME280;10233;50.814;6.590;2023-03-01T03:25:50;101418.03;;;-1.02;100.00
20145;BME280;10233;50.814;6.590;2023-03-01T03:26:51;101422.41;;;-1.03;100.00
20145;BME280;10233;50.814;6.590;2023-03-01T03:27:53;101424.47;;;-1.08;100.00
20145;BME280;10233;50.814;6.590;2023-03-01T03:28:59;101418.53;;;-1.10;100.00
20145;BME280;10233;50.814;6.590;2023-03-01T03:30:00;101419.25;;;-1.08;100.00
20145;BME280;10233;50.814;6.590;2023-03-01T03:31:01;101422.16;;;-1.12;100.00
20145;BME280;10233;50.814;6.590;2023-03-01T03:32:04;101415.78;;;-1.08;100.00
20145;BME280;10233;50.814;6.590;2023-03-01T03:33:05;101426.97;;;-1.06;100.00
20145;BME280;10233;50.814;6.590;2023-03-01T03:34:06;101418.22;;;-1.05;100.00
20145;BME280;10233;50.814;6.590;2023-03-01T03:35:09;101419.06;;;-1.05;100.00
20145;BME280;10233;50.814;6.590;2023-03-01T03:36:23;101416.34;;;-1.03;100.00
20145;BME280;10233;50.814;6.590;2023-03-01T03:37:24;101411.13;;;-1.03;100.00
20145;BME280;10233;50.814;6.590;2023-03-01T03:38:46;101412.81;;;-1.02;100.00
20145;BME280;10233;50.814;6.590;2023-03-01T03:39:47;101408.41;;;-1.02;100.00
20145;BME280;10233;50.814;6.590;2023-03-01T03:40:50;101404.22;;;-1.04;100.00
20145;BME280;10233;50.814;6.590;2023-03-01T03:41:50;101406.94;;;-1.06;100.00
20145;BME280;10233;50.814;6.590;2023-03-01T03:42:51;101417.59;;;-1.09;100.00
20145;BME280;10233;50.814;6.590;2023-03-01T03:43:51;101409.22;;;-1.14;100.00
20145;BME280;10233;50.814;6.590;2023-03-01T03:44:52;101408.38;;;-1.14;100.00
20145;BME280;10233;50.814;6.590;2023-03-01T03:45:52;101405.84;;;-1.16;100.00
20145;BME280;10233;50.814;6.590;2023-03-01T03:46:54;101403.56;;;-1.20;100.00
20145;BME280;10233;50.814;6.590;2023-03-01T03:47:54;101409.41;;;-1.17;100.00
20145;BME280;10233;50.814;6.590;2023-03-01T03:48:54;101408.38;;;-1.14;100.00
20145;BME280;10233;50.814;6.590;2023-03-01T03:49:55;101412.09;;;-1.18;100.00
20145;BME280;10233;50.814;6.590;2023-03-01T03:50:56;101413.22;;;-1.22;100.00
20145;BME280;10233;50.814;6.590;2023-03-01T03:51:56;101411.47;;;-1.22;100.00
20145;BME280;10233;50.814;6.590;2023-03-01T03:52:57;101405.41;;;-1.22;100.00
20145;BME280;10233;50.814;6.590;2023-03-01T03:53:57;101409.50;;;-1.18;100.00
20145;BME280;10233;50.814;6.590;2023-03-01T03:54:58;101409.91;;;-1.24;100.00
20145;BME280;10233;50.814;6.590;2023-03-01T03:55:58;101411.97;;;-1.29;100.00
20145;BME280;10233;50.814;6.590;2023-03-01T03:56:59;101408.50;;;-1.30;100.00
20145;BME280;10233;50.814;6.590;2023-03-01T03:58:02;101399.66;;;-1.27;100.00
20145;BME280;10233;50.814;6.590;2023-03-01T03:59:06;101398.53;;;-1.23;100.00
20145;BME280;10233;50.814;6.590;2023-03-01T04:00:11;101406.34;;;-1.23;100.00
20145;BME280;10233;50.814;6.590;2023-03-01T04:01:15;101404.69;;;-1.24;100.00
20145;BME280;10233;50.814;6.590;2023-03-01T04:02:15;101405.41;;;-1.22;100.00
20145;BME280;10233;50.814;6.590;2023-03-01T04:03:24;101407.59;;;-1.29;100.00
20145;BME280;10233;50.814;6.590;2023-03-01T04:04:25;101410.28;;;-1.30;100.00
20145;BME280;10233;50.814;6.590;2023-03-01T04:05:26;101398.28;;;-1.33;100.00
20145;BME280;10233;50.814;6.590;2023-03-01T04:06:26;101405.34;;;-1.35;100.00
20145;BME280;10233;50.814;6.590;2023-03-01T04:07:27;101403.91;;;-1.39;100.00
20145;BME280;10233;50.814;6.590;2023-03-01T04:08:27;101403.50;;;-1.33;100.00
20145;BME280;10233;50.814;6.590;2023-03-01T04:09:28;101401.00;;;-1.34;100.00
20145;BME280;10233;50.814;6.590;2023-03-01T04:10:39;101404.53;;;-1.35;100.00
20145;BME280;10233;50.814;6.590;2023-03-01T04:11:40;101400.75;;;-1.44;100.00
20145;BME280;10233;50.814;6.590;2023-03-01T04:12:41;101399.91;;;-1.44;100.00
20145;BME280;10233;50.814;6.590;2023-03-01T04:13:43;101397.94;;;-1.41;100.00
20145;BME280;10233;50.814;6.590;2023-03-01T04:14:43;101397.22;;;-1.43;100.00
20145;BME280;10233;50.814;6.590;2023-03-01T04:15:44;101392.09;;;-1.44;100.00
20145;BME280;10233;50.814;6.590;2023-03-01T04:16:45;101388.63;;;-1.45;100.00
20145;BME280;10233;50.814;6.590;2023-03-01T04:17:46;101383.31;;;-1.43;100.00
20145;BME280;10233;50.814;6.590;2023-03-01T04:18:47;101383.16;;;-1.40;100.00
20145;BME280;10233;50.814;6.590;2023-03-01T04:19:47;101385.94;;;-1.43;100.00
20145;BME280;10233;50.814;6.590;2023-03-01T04:20:49;101386.69;;;-1.41;100.00
20145;BME280;10233;50.814;6.590;2023-03-01T04:21:53;101387.59;;;-1.42;100.00
20145;BME280;10233;50.814;6.590;2023-03-01T04:23:17;101380.72;;;-1.43;100.00
20145;BME280;10233;50.814;6.590;2023-03-01T04:24:20;101385.13;;;-1.44;100.00
20145;BME280;10233;50.814;6.590;2023-03-01T04:25:20;101385.75;;;-1.40;100.00
20145;BME280;10233;50.814;6.590;2023-03-01T04:26:21;101380.00;;;-1.45;100.00
20145;BME280;10233;50.814;6.590;2023-03-01T04:27:21;101376.06;;;-1.38;100.00
20145;BME280;10233;50.814;6.590;2023-03-01T04:29:29;101381.06;;;-1.35;100.00
20145;BME280;10233;50.814;6.590;2023-03-01T04:30:30;101378.56;;;-1.37;100.00
20145;BME280;10233;50.814;6.590;2023-03-01T04:31:36;101374.28;;;-1.38;100.00
20145;BME280;10233;50.814;6.590;2023-03-01T04:32:36;101382.38;;;-1.42;100.00
20145;BME280;10233;50.814;6.590;2023-03-01T04:33:36;101375.97;;;-1.37;100.00
20145;BME280;10233;50.814;6.590;2023-03-01T04:34:37;101376.91;;;-1.38;100.00
20145;BME280;10233;50.814;6.590;2023-03-01T04:35:38;101373.44;;;-1.38;100.00
20145;BME280;10233;50.814;6.590;2023-03-01T04:36:39;101380.53;;;-1.40;100.00
20145;BME280;10233;50.814;6.590;2023-03-01T04:37:40;101372.81;;;-1.42;100.00
20145;BME280;10233;50.814;6.590;2023-03-01T04:38:42;101379.06;;;-1.44;100.00
20145;BME280;10233;50.814;6.590;2023-03-01T04:39:42;101372.91;;;-1.43;100.00
20145;BME280;10233;50.814;6.590;2023-03-01T04:40:47;101378.88;;;-1.41;100.00
20145;BME280;10233;50.814;6.590;2023-03-01T04:41:48;101380.94;;;-1.46;100.00
20145;BME280;10233;50.814;6.590;2023-03-01T04:42:48;101373.00;;;-1.45;100.00
20145;BME280;10233;50.814;6.590;2023-03-01T04:43:49;101383.41;;;-1.45;100.00
20145;BME280;10233;50.814;6.590;2023-03-01T04:44:50;101378.88;;;-1.41;100.00
20145;BME280;10233;50.814;6.590;2023-03-01T04:45:51;101383.41;;;-1.45;100.00
20145;BME280;10233;50.814;6.590;2023-03-01T04:46:54;101387.78;;;-1.31;100.00
20145;BME280;10233;50.814;6.590;2023-03-01T04:47:54;101384.81;;;-1.39;100.00
20145;BME280;10233;50.814;6.590;2023-03-01T04:48:58;101379.91;;;-1.44;100.00
20145;BME280;10233;50.814;6.590;2023-03-01T04:49:58;101378.41;;;-1.48;100.00
20145;BME280;10233;50.814;6.590;2023-03-01T04:50:59;101381.75;;;-1.46;100.00
20145;BME280;10233;50.814;6.590;2023-03-01T04:52:00;101383.72;;;-1.49;100.00
20145;BME280;10233;50.814;6.590;2023-03-01T04:53:03;101380.19;;;-1.48;100.00
20145;BME280;10233;50.814;6.590;2023-03-01T04:54:04;101384.56;;;-1.49;100.00
20145;BME280;10233;50.814;6.590;2023-03-01T04:55:09;101384.66;;;-1.50;100.00
20145;BME280;10233;50.814;6.590;2023-03-01T04:56:10;101379.84;;;-1.56;100.00
20145;BME280;10233;50.814;6.590;2023-03-01T04:57:10;101379.00;;;-1.57;100.00
20145;BME280;10233;50.814;6.590;2023-03-01T04:58:10;101378.16;;;-1.57;100.00
20145;BME280;10233;50.814;6.590;2023-03-01T04:59:11;101382.31;;;-1.55;100.00
20145;BME280;10233;50.814;6.590;2023-03-01T05:00:13;101374.63;;;-1.56;100.00
20145;BME280;10233;50.814;6.590;2023-03-01T05:01:20;101375.28;;;-1.53;100.00
20145;BME280;10233;50.814;6.590;2023-03-01T05:02:21;101371.28;;;-1.58;100.00
20145;BME280;10233;50.814;6.590;2023-03-01T05:03:21;101373.50;;;-1.66;100.00
20145;BME280;10233;50.814;6.590;2023-03-01T05:04:23;101374.28;;;-1.64;100.00
20145;BME280;10233;50.814;6.590;2023-03-01T05:05:31;101369.59;;;-1.59;100.00
20145;BME280;10233;50.814;6.590;2023-03-01T05:06:32;101366.81;;;-1.56;100.00
20145;BME280;10233;50.814;6.590;2023-03-01T05:07:33;101365.88;;;-1.55;100.00
20145;BME280;10233;50.814;6.590;2023-03-01T05:08:33;101365.22;;;-1.59;100.00
20145;BME280;10233;50.814;6.590;2023-03-01T05:09:37;101366.81;;;-1.56;100.00
20145;BME280;10233;50.814;6.590;2023-03-01T05:10:38;101362.59;;;-1.59;100.00
20145;BME280;10233;50.814;6.590;2023-03-01T05:11:39;101362.81;;;-1.62;100.00
20145;BME280;10233;50.814;6.590;2023-03-01T05:12:39;101362.81;;;-1.62;100.00
20145;BME280;10233;50.814;6.590;2023-03-01T05:13:40;101362.50;;;-1.57;100.00
20145;BME280;10233;50.814;6.590;2023-03-01T05:14:41;101361.03;;;-1.61;100.00
20145;BME280;10233;50.814;6.590;2023-03-01T05:15:41;101368.13;;;-1.63;100.00
20145;BME280;10233;50.814;6.590;2023-03-01T05:16:43;101368.13;;;-1.63;100.00
20145;BME280;10233;50.814;6.590;2023-03-01T05:17:43;101365.69;;;-1.66;100.00
20145;BME280;10233;50.814;6.590;2023-03-01T05:18:44;101363.44;;;-1.58;100.00
20145;BME280;10233;50.814;6.590;2023-03-01T05:19:44;101356.28;;;-1.55;100.00
20145;BME280;10233;50.814;6.590;2023-03-01T05:20:44;101368.13;;;-1.63;100.00
20145;BME280;10233;50.814;6.590;2023-03-01T05:21:45;101376.78;;;-1.63;100.00
20145;BME280;10233;50.814;6.590;2023-03-01T05:23:04;101372.31;;;-1.61;100.00
20145;BME280;10233;50.814;6.590;2023-03-01T05:24:05;101373.25;;;-1.62;100.00
20145;BME280;10233;50.814;6.590;2023-03-01T05:25:10;101379.09;;;-1.58;100.00
20145;BME280;10233;50.814;6.590;2023-03-01T05:26:11;101379.56;;;-1.66;100.00
20145;BME280;10233;50.814;6.590;2023-03-01T05:27:12;101377.25;;;-1.70;100.00
20145;BME280;10233;50.814;6.590;2023-03-01T05:28:13;101375.56;;;-1.71;100.00
20145;BME280;10233;50.814;6.590;2023-03-01T05:29:14;101376.59;;;-1.74;100.00
20145;BME280;10233;50.814;6.590;2023-03-01T05:30:15;101375.97;;;-1.77;100.00
20145;BME280;10233;50.814;6.590;2023-03-01T05:31:15;101371.84;;;-1.67;100.00
20145;BME280;10233;50.814;6.590;2023-03-01T05:32:16;101368.69;;;-1.72;100.00
20145;BME280;10233;50.814;6.590;2023-03-01T05:33:17;101370.47;;;-1.73;100.00